createdAt,value
2023-03-19T00:03:49.626Z,69.63
2023-03-19T00:09:10.847Z,71.20
2023-03-19T00:14:31.649Z,69.22
2023-03-19T00:19:52.145Z,58.85
2023-03-19T00:25:12.742Z,63.42
2023-03-19T00:30:33.287Z,64.47
2023-03-19T00:35:53.792Z,59.42
2023-03-19T00:41:17.414Z,63.28
2023-03-19T00:46:37.852Z,66.93
2023-03-19T00:51:58.817Z,56.25
2023-03-19T00:57:19.323Z,58.20
2023-03-19T01:02:39.819Z,57.30
2023-03-19T01:08:00.692Z,57.17
2023-03-19T01:13:21.291Z,60.85
2023-03-19T01:18:42.515Z,52.47
2023-03-19T01:24:03.284Z,56.80
2023-03-19T01:29:24.269Z,53.35
2023-03-19T01:34:46.620Z,53.58
2023-03-19T01:40:14.486Z,54.15
2023-03-19T01:45:38.171Z,51.50
2023-03-19T01:51:20.640Z,59.88
2023-03-19T01:57:07.080Z,57.25
2023-03-19T02:02:54.069Z,53.53
2023-03-19T02:08:34.098Z,52.03
2023-03-19T02:13:54.750Z,57.10
2023-03-19T02:19:44.049Z,59.75
2023-03-19T02:25:14.211Z,56.33
2023-03-19T02:30:37.849Z,57.40
2023-03-19T02:36:06.717Z,52.05
2023-03-19T02:41:29.277Z,46.47
2023-03-19T02:46:51.841Z,47.28
2023-03-19T02:52:12.424Z,54.15
2023-03-19T02:57:34.120Z,42.55
2023-03-19T03:02:57.447Z,45.05
2023-03-19T03:08:18.629Z,48.73
2023-03-19T03:13:39.253Z,46.30
2023-03-19T03:19:00.313Z,53.20
2023-03-19T03:24:21.284Z,42.15
2023-03-19T03:29:42.043Z,45.78
2023-03-19T03:35:04.140Z,51.78
2023-03-19T03:40:25.310Z,45.50
2023-03-19T03:45:48.845Z,55.83
2023-03-19T03:51:11.629Z,54.03
2023-03-19T03:56:34.115Z,56.28
2023-03-19T04:01:55.049Z,57.85
2023-03-19T04:07:16.755Z,55.67
2023-03-19T04:12:45.972Z,53.38
2023-03-19T04:18:06.744Z,60.20
2023-03-19T04:23:27.971Z,52.88
2023-03-19T04:28:48.725Z,53.33
2023-03-19T04:34:09.592Z,50.20
2023-03-19T04:39:30.228Z,54.35
2023-03-19T04:44:51.204Z,53.67
2023-03-19T04:50:12.956Z,55.78
2023-03-19T04:55:35.573Z,67.00
2023-03-19T05:01:00.935Z,59.60
2023-03-19T05:06:41.953Z,56.20
2023-03-19T05:12:02.951Z,53.53
2023-03-19T05:17:30.129Z,63.35
2023-03-19T05:23:09.244Z,59.60
2023-03-19T05:28:47.123Z,55.92
2023-03-19T05:39:32.984Z,70.75
2023-03-19T05:44:58.427Z,44.35
2023-03-19T05:50:22.026Z,48.97
2023-03-19T05:56:01.176Z,52.45
2023-03-19T06:01:24.943Z,54.80
2023-03-19T06:06:46.126Z,47.65
2023-03-19T06:12:08.418Z,43.25
2023-03-19T06:17:48.554Z,51.20
2023-03-19T06:23:11.608Z,43.77
2023-03-19T06:28:33.091Z,43.55
2023-03-19T06:33:56.349Z,35.50
2023-03-19T06:39:21.130Z,43.45
2023-03-19T06:44:41.955Z,40.03
2023-03-19T06:50:02.895Z,43.85
2023-03-19T06:55:23.621Z,39.60
2023-03-19T07:00:44.310Z,37.17
2023-03-19T07:06:05.862Z,38.92
2023-03-19T07:11:26.649Z,35.10
2023-03-19T07:16:47.135Z,37.30
2023-03-19T07:22:07.727Z,32.40
2023-03-19T07:27:28.312Z,34.33
2023-03-19T07:32:48.958Z,35.75
2023-03-19T07:38:10.394Z,38.38
2023-03-19T07:43:31.670Z,33.05
2023-03-19T07:48:52.594Z,39.05
2023-03-19T07:54:13.721Z,35.90
2023-03-19T07:59:34.096Z,35.13
2023-03-19T08:04:55.896Z,30.75
2023-03-19T08:10:17.763Z,30.63
2023-03-19T08:15:38.348Z,31.40
2023-03-19T08:20:59.282Z,33.10
2023-03-19T08:26:20.214Z,27.35
2023-03-19T08:31:41.300Z,26.05
2023-03-19T08:37:01.948Z,27.05
2023-03-19T08:42:22.802Z,28.85
2023-03-19T08:47:43.907Z,28.10
2023-03-19T08:53:04.648Z,25.17
2023-03-19T08:58:27.965Z,24.92
2023-03-19T09:03:49.178Z,22.90
2023-03-19T09:09:09.975Z,23.20
2023-03-19T09:14:30.457Z,26.77
2023-03-19T09:19:50.769Z,26.83
2023-03-19T09:25:12.197Z,22.30
2023-03-19T09:30:32.941Z,25.50
2023-03-19T09:35:54.034Z,23.88
2023-03-19T09:41:43.234Z,25.00
2023-03-19T09:47:23.978Z,22.98
2023-03-19T09:52:45.931Z,18.95
2023-03-19T09:58:17.076Z,34.05
2023-03-19T10:03:52.875Z,23.88
2023-03-19T10:09:39.668Z,27.58
2023-03-19T10:15:00.489Z,22.13
2023-03-19T10:20:41.657Z,21.38
2023-03-19T10:26:05.541Z,23.42
2023-03-19T10:31:31.167Z,21.38
2023-03-19T10:36:58.952Z,21.05
2023-03-19T10:42:33.281Z,18.02
2023-03-19T10:47:56.096Z,19.13
2023-03-19T10:53:16.786Z,15.20
2023-03-19T10:58:37.473Z,12.13
2023-03-19T11:04:00.259Z,12.27
2023-03-19T11:09:29.325Z,13.32
2023-03-19T11:14:56.550Z,13.73
2023-03-19T11:20:27.452Z,13.38
2023-03-19T11:25:53.934Z,13.07
2023-03-19T11:31:25.627Z,14.38
2023-03-19T11:36:55.120Z,13.88
2023-03-19T11:42:42.841Z,13.02
2023-03-19T11:48:20.032Z,13.57
2023-03-19T11:53:59.933Z,13.32
2023-03-19T11:59:42.647Z,14.77
2023-03-19T12:05:12.425Z,14.13
2023-03-19T12:10:46.279Z,16.92
2023-03-19T12:16:16.515Z,13.30
2023-03-19T12:21:49.724Z,12.73
2023-03-19T12:27:24.872Z,12.52
2023-03-19T12:33:09.869Z,14.82
2023-03-19T12:39:16.759Z,15.05
2023-03-19T12:50:07.204Z,13.43
2023-03-19T12:55:40.545Z,13.45
2023-03-19T13:01:14.660Z,14.07
2023-03-19T13:06:38.944Z,16.83
2023-03-19T13:12:14.759Z,11.87
2023-03-19T13:18:03.561Z,14.48
2023-03-19T13:23:30.098Z,13.73
2023-03-19T13:29:18.497Z,14.18
2023-03-19T13:34:39.096Z,18.95
2023-03-19T13:40:04.943Z,16.30
2023-03-19T13:45:36.587Z,15.10
2023-03-19T13:51:26.927Z,18.27
2023-03-19T13:57:07.041Z,18.17
2023-03-19T14:02:27.714Z,26.33
2023-03-19T14:07:53.098Z,28.45
2023-03-19T14:13:26.277Z,25.92
2023-03-19T14:18:48.418Z,25.08
2023-03-19T14:24:58.276Z,31.48
2023-03-19T14:45:34.828Z,25.30
2023-03-19T14:51:19.379Z,27.75
2023-03-19T14:56:40.666Z,18.98
2023-03-19T15:02:01.552Z,10.55
2023-03-19T15:07:29.546Z,6.85
2023-03-19T15:13:07.244Z,6.15
2023-03-19T15:18:28.695Z,13.50
2023-03-19T15:23:49.606Z,9.32
2023-03-19T15:29:12.521Z,11.50
2023-03-19T15:34:33.319Z,9.10
2023-03-19T15:39:56.131Z,10.75
2023-03-19T15:45:21.132Z,11.05
2023-03-19T15:50:46.260Z,6.97
2023-03-19T15:56:07.949Z,10.02
2023-03-19T16:01:32.093Z,8.15
2023-03-19T16:06:53.232Z,9.98
2023-03-19T16:12:36.669Z,9.90
2023-03-19T16:18:15.238Z,10.73
2023-03-19T16:23:40.603Z,7.90
2023-03-19T16:29:17.519Z,15.02
2023-03-19T16:34:43.555Z,9.10
2023-03-19T16:40:16.074Z,11.38
2023-03-19T16:45:37.085Z,13.80
2023-03-19T16:50:57.892Z,11.88
2023-03-19T16:56:19.475Z,13.07
2023-03-19T17:01:40.161Z,11.43
2023-03-19T17:07:01.115Z,12.15
2023-03-19T17:12:21.662Z,10.43
2023-03-19T17:17:42.060Z,13.18
2023-03-19T17:23:11.241Z,11.40
2023-03-19T17:28:32.423Z,8.07
2023-03-19T17:34:00.309Z,15.02
2023-03-19T17:39:21.683Z,7.75
2023-03-19T17:44:42.210Z,11.73
2023-03-19T17:50:02.933Z,22.08
2023-03-19T17:55:29.177Z,9.60
2023-03-19T18:00:51.455Z,15.00
2023-03-19T18:06:17.924Z,9.07
2023-03-19T18:11:38.321Z,12.07
2023-03-19T18:16:59.290Z,11.48
2023-03-19T18:22:21.192Z,11.07
2023-03-19T18:27:41.750Z,12.38
2023-03-19T18:33:05.794Z,13.35
2023-03-19T18:38:26.991Z,10.88
2023-03-19T18:43:48.056Z,17.35
2023-03-19T18:49:24.560Z,19.58
2023-03-19T18:54:45.173Z,17.15
2023-03-19T19:00:07.288Z,12.68
2023-03-19T19:05:31.316Z,15.10
2023-03-19T19:10:55.537Z,17.95
2023-03-19T19:16:20.029Z,27.33
2023-03-19T19:21:40.785Z,21.33
2023-03-19T19:27:01.635Z,20.45
2023-03-19T19:32:26.367Z,25.05
2023-03-19T19:37:47.414Z,15.52
2023-03-19T19:43:18.311Z,13.98
2023-03-19T19:48:39.712Z,16.73
2023-03-19T19:54:00.945Z,19.23
2023-03-19T19:59:25.214Z,19.58
2023-03-19T20:04:46.596Z,15.05
2023-03-19T20:10:07.879Z,10.57
2023-03-19T20:15:32.962Z,12.45
2023-03-19T20:20:53.586Z,12.50
2023-03-19T20:26:16.174Z,15.38
2023-03-19T20:31:37.479Z,12.70
2023-03-19T20:36:58.134Z,11.63
2023-03-19T20:42:19.738Z,16.65
2023-03-19T20:47:40.781Z,17.98
2023-03-19T20:53:01.589Z,11.73
2023-03-19T20:58:31.341Z,17.67
2023-03-19T21:03:53.233Z,14.57
2023-03-19T21:09:13.839Z,14.63
2023-03-19T21:14:34.757Z,7.28
2023-03-19T21:19:56.797Z,13.57
2023-03-19T21:25:23.669Z,13.80
2023-03-19T21:36:10.736Z,8.48
2023-03-19T21:41:36.557Z,11.38
2023-03-19T21:46:57.623Z,3.63
2023-03-19T21:52:20.719Z,4.95
2023-03-19T21:57:41.829Z,5.32
2023-03-19T22:03:02.801Z,5.63
2023-03-19T22:08:25.033Z,6.72
2023-03-19T22:13:46.214Z,4.78
2023-03-19T22:19:06.753Z,8.25
2023-03-19T22:24:27.646Z,6.30
2023-03-19T22:29:49.438Z,9.25
2023-03-19T22:35:16.097Z,7.72
2023-03-19T22:40:39.601Z,9.27
2023-03-19T22:46:07.115Z,10.38
2023-03-19T22:51:28.427Z,6.03
2023-03-19T22:56:49.515Z,7.43
2023-03-19T23:02:14.409Z,11.57
2023-03-19T23:07:34.726Z,4.63
2023-03-19T23:12:57.154Z,3.67
2023-03-19T23:18:26.218Z,5.20
2023-03-19T23:23:47.359Z,8.02
2023-03-19T23:29:17.637Z,3.08
2023-03-19T23:34:54.126Z,1.65
2023-03-19T23:40:18.062Z,3.05
2023-03-19T23:45:42.848Z,4.32
2023-03-19T23:51:03.781Z,3.45
2023-03-19T23:56:27.340Z,8.80
